createdAt,value
2019-05-14T00:00:04.354Z,57.19
2019-05-14T00:01:04.340Z,57.40
2019-05-14T00:02:04.331Z,57.81
2019-05-14T00:03:04.320Z,58.33
2019-05-14T00:04:04.328Z,58.12
2019-05-14T00:05:05.251Z,57.91
2019-05-14T00:06:04.279Z,57.81
2019-05-14T00:07:04.280Z,58.01
2019-05-14T00:08:04.284Z,58.01
2019-05-14T00:09:04.278Z,58.22
2019-05-14T00:10:04.255Z,58.22
2019-05-14T00:11:04.235Z,58.12
2019-05-14T00:12:04.561Z,58.35
2019-05-14T00:13:04.205Z,58.25
2019-05-14T00:14:04.218Z,58.25
2019-05-14T00:15:04.228Z,58.35
2019-05-14T00:16:04.209Z,58.56
2019-05-14T00:17:04.183Z,58.56
2019-05-14T00:18:04.158Z,58.76
2019-05-14T00:19:04.158Z,58.35
2019-05-14T00:20:09.301Z,58.45
2019-05-14T00:21:05.137Z,58.45
2019-05-14T00:22:04.126Z,58.66
2019-05-14T00:23:04.107Z,58.87
2019-05-14T00:24:04.107Z,58.76
2019-05-14T00:25:04.077Z,58.97
2019-05-14T00:26:04.067Z,58.56
2019-05-14T00:27:04.079Z,58.97
2019-05-14T00:28:04.042Z,59.08
2019-05-14T00:29:04.048Z,59.31
2019-05-14T00:30:04.018Z,59.52
2019-05-14T00:31:04.007Z,59.72
2019-05-14T00:32:03.996Z,59.62
2019-05-14T00:33:04.012Z,59.62
2019-05-14T00:34:04.021Z,59.83
2019-05-14T00:35:03.967Z,59.62
2019-05-14T00:36:03.947Z,59.52
2019-05-14T00:37:03.960Z,59.83
2019-05-14T00:38:03.939Z,59.93
2019-05-14T00:39:03.951Z,59.93
2019-05-14T00:40:03.912Z,60.03
2019-05-14T00:41:03.898Z,60.14
2019-05-14T00:42:03.896Z,60.14
2019-05-14T00:43:03.883Z,60.16
2019-05-14T00:44:03.886Z,60.16
2019-05-14T00:45:03.865Z,60.16
2019-05-14T00:46:03.850Z,60.27
2019-05-14T00:47:03.834Z,60.58
2019-05-14T00:48:03.826Z,60.68
2019-05-14T00:49:03.832Z,60.99
2019-05-14T00:50:03.805Z,60.58
2019-05-14T00:51:03.787Z,60.68
2019-05-14T00:52:03.790Z,60.68
2019-05-14T00:53:03.773Z,60.68
2019-05-14T00:54:03.797Z,60.78
2019-05-14T00:55:03.745Z,60.99
2019-05-14T00:56:03.735Z,60.78
2019-05-14T00:57:03.724Z,61.20
2019-05-14T00:58:03.732Z,61.30
2019-05-14T00:59:03.774Z,61.40
2019-05-14T01:00:03.704Z,61.71
2019-05-14T01:01:03.684Z,61.95
2019-05-14T01:02:03.673Z,61.64
2019-05-14T01:03:03.666Z,61.74
2019-05-14T01:04:03.681Z,61.61
2019-05-14T01:05:04.468Z,61.10
2019-05-14T01:06:03.629Z,61.40
2019-05-14T01:07:03.614Z,61.54
2019-05-14T01:08:03.604Z,61.33
2019-05-14T01:09:03.625Z,61.54
2019-05-14T01:10:03.609Z,61.95
2019-05-14T01:11:03.582Z,61.54
2019-05-14T01:12:03.571Z,61.51
2019-05-14T01:13:03.556Z,61.40
2019-05-14T01:14:03.543Z,61.40
2019-05-14T01:15:10.232Z,61.40
2019-05-14T01:16:04.526Z,61.20
2019-05-14T01:17:03.504Z,61.40
2019-05-14T01:18:03.495Z,61.61
2019-05-14T01:19:03.483Z,61.40
2019-05-14T01:20:03.534Z,61.51
2019-05-14T01:21:03.462Z,61.71
2019-05-14T01:22:03.454Z,61.61
2019-05-14T01:23:03.455Z,61.82
2019-05-14T01:24:03.423Z,62.13
2019-05-14T01:25:03.432Z,62.02
2019-05-14T01:26:03.415Z,61.92
2019-05-14T01:27:03.422Z,61.85
2019-05-14T01:28:03.396Z,61.30
2019-05-14T01:29:03.384Z,61.40
2019-05-14T01:30:03.392Z,61.40
2019-05-14T01:31:03.351Z,61.51
2019-05-14T01:32:03.361Z,61.61
2019-05-14T01:33:03.341Z,61.61
2019-05-14T01:34:03.321Z,61.71
2019-05-14T01:35:05.012Z,61.92
2019-05-14T01:36:03.304Z,61.71
2019-05-14T01:37:03.283Z,61.82
2019-05-14T01:38:03.271Z,62.13
2019-05-14T01:39:03.280Z,62.65
2019-05-14T01:40:03.283Z,62.75
2019-05-14T01:41:03.245Z,62.75
2019-05-14T01:42:03.231Z,62.44
2019-05-14T01:43:03.234Z,62.34
2019-05-14T01:44:03.211Z,62.44
2019-05-14T01:45:03.220Z,62.54
2019-05-14T01:46:03.193Z,62.75
2019-05-14T01:47:03.190Z,62.44
2019-05-14T01:48:03.173Z,62.44
2019-05-14T01:49:03.151Z,62.34
2019-05-14T01:50:03.162Z,62.54
2019-05-14T01:51:03.142Z,62.72
2019-05-14T01:52:03.138Z,62.62
2019-05-14T01:53:03.122Z,63.03
2019-05-14T01:54:03.124Z,63.03
2019-05-14T01:55:03.127Z,62.75
2019-05-14T01:56:03.109Z,62.75
2019-05-14T01:57:03.072Z,62.75
2019-05-14T01:58:03.070Z,62.54
2019-05-14T01:59:03.061Z,62.34
2019-05-14T02:00:03.039Z,61.82
2019-05-14T02:01:03.040Z,61.92
2019-05-14T02:02:03.011Z,62.13
2019-05-14T02:03:03.004Z,62.34
2019-05-14T02:04:02.990Z,62.77
2019-05-14T02:05:02.982Z,62.77
2019-05-14T02:06:03.549Z,62.67
2019-05-14T02:07:02.960Z,62.88
2019-05-14T02:08:02.951Z,62.67
2019-05-14T02:09:02.941Z,63.19
2019-05-14T02:10:02.935Z,63.29
2019-05-14T02:11:02.942Z,62.57
2019-05-14T02:12:02.900Z,62.88
2019-05-14T02:13:02.889Z,62.60
2019-05-14T02:14:02.895Z,62.81
2019-05-14T02:15:02.873Z,62.91
2019-05-14T02:16:03.026Z,63.22
2019-05-14T02:17:02.868Z,63.22
2019-05-14T02:18:02.849Z,63.22
2019-05-14T02:19:02.818Z,63.43
2019-05-14T02:20:02.818Z,63.74
2019-05-14T02:21:02.829Z,63.84
2019-05-14T02:22:02.823Z,63.95
2019-05-14T02:23:02.778Z,64.04
2019-05-14T02:24:02.778Z,64.15
2019-05-14T02:25:02.769Z,64.25
2019-05-14T02:26:02.846Z,64.15
2019-05-14T02:27:02.760Z,64.28
2019-05-14T02:28:02.717Z,64.36
2019-05-14T02:29:02.717Z,64.39
2019-05-14T02:30:02.731Z,64.49
2019-05-14T02:31:03.962Z,64.49
2019-05-14T02:32:02.709Z,64.39
2019-05-14T02:33:02.707Z,64.28
2019-05-14T02:34:02.667Z,64.70
2019-05-14T02:35:02.673Z,64.28
2019-05-14T02:36:02.667Z,64.15
2019-05-14T02:37:02.644Z,64.07
2019-05-14T02:38:02.652Z,63.84
2019-05-14T02:39:02.606Z,63.84
2019-05-14T02:40:02.616Z,63.84
2019-05-14T02:41:02.588Z,63.74
2019-05-14T02:42:02.584Z,63.84
2019-05-14T02:43:02.583Z,63.84
2019-05-14T02:44:02.557Z,63.95
2019-05-14T02:45:02.546Z,63.84
2019-05-14T02:46:12.045Z,63.74
2019-05-14T02:47:03.521Z,63.43
2019-05-14T02:48:02.570Z,63.64
2019-05-14T02:49:02.497Z,63.64
2019-05-14T02:50:02.506Z,63.43
2019-05-14T02:51:02.498Z,63.32
2019-05-14T02:52:02.466Z,63.32
2019-05-14T02:53:02.477Z,63.22
2019-05-14T02:54:02.465Z,63.32
2019-05-14T02:55:02.435Z,63.53
2019-05-14T02:56:02.443Z,63.43
2019-05-14T02:57:02.418Z,63.43
2019-05-14T02:58:02.408Z,63.12
2019-05-14T02:59:05.578Z,63.22
2019-05-14T03:00:02.394Z,63.22
2019-05-14T03:01:02.374Z,62.91
2019-05-14T03:02:02.357Z,63.22
2019-05-14T03:03:02.365Z,62.91
2019-05-14T03:04:02.347Z,63.01
2019-05-14T03:05:02.327Z,63.32
2019-05-14T03:06:02.316Z,62.81
2019-05-14T03:07:02.307Z,63.32
2019-05-14T03:08:02.295Z,63.32
2019-05-14T03:09:02.304Z,63.53
2019-05-14T03:10:02.310Z,63.64
2019-05-14T03:11:02.270Z,63.74
2019-05-14T03:12:02.256Z,63.95
2019-05-14T03:13:02.234Z,64.04
2019-05-14T03:14:02.260Z,63.84
2019-05-14T03:15:02.243Z,63.95
2019-05-14T03:16:22.132Z,64.04
2019-05-14T03:17:10.759Z,64.15
2019-05-14T03:18:09.930Z,64.15
2019-05-14T03:19:11.789Z,64.56
2019-05-14T03:20:02.168Z,64.56
2019-05-14T03:21:09.907Z,64.56
2019-05-14T03:22:02.137Z,64.77
2019-05-14T03:23:08.655Z,64.46
2019-05-14T03:24:03.117Z,64.56
2019-05-14T03:25:02.845Z,64.49
2019-05-14T03:26:02.105Z,64.59
2019-05-14T03:27:02.089Z,64.59
2019-05-14T03:28:02.077Z,64.90
2019-05-14T03:29:02.056Z,64.39
2019-05-14T03:30:02.098Z,64.59
2019-05-14T03:31:03.772Z,64.39
2019-05-14T03:32:03.697Z,64.49
2019-05-14T03:33:03.354Z,64.28
2019-05-14T03:34:03.445Z,64.39
2019-05-14T03:35:03.796Z,64.18
2019-05-14T03:36:08.879Z,64.39
2019-05-14T03:37:04.066Z,64.39
2019-05-14T03:38:01.962Z,64.49
2019-05-14T03:39:01.944Z,64.59
2019-05-14T03:40:01.942Z,64.70
2019-05-14T03:41:01.954Z,64.49
2019-05-14T03:42:01.949Z,64.59
2019-05-14T03:43:01.923Z,64.80
2019-05-14T03:44:01.894Z,64.80
2019-05-14T03:45:01.914Z,64.94
2019-05-14T03:46:01.903Z,65.14
2019-05-14T03:47:05.243Z,65.04
2019-05-14T03:48:01.858Z,65.04
2019-05-14T03:49:01.842Z,65.04
2019-05-14T03:50:01.846Z,65.04
2019-05-14T03:51:01.833Z,65.14
2019-05-14T03:52:01.813Z,65.25
2019-05-14T03:53:01.909Z,65.77
2019-05-14T03:54:07.483Z,65.87
2019-05-14T03:55:04.655Z,66.08
2019-05-14T03:56:01.901Z,66.18
2019-05-14T03:57:01.782Z,65.35
2019-05-14T03:58:01.755Z,65.35
2019-05-14T03:59:01.780Z,65.56
2019-05-14T04:00:01.742Z,65.77
2019-05-14T04:01:01.709Z,65.66
2019-05-14T04:02:01.720Z,65.77
2019-05-14T04:03:01.691Z,66.08
2019-05-14T04:04:01.684Z,65.87
2019-05-14T04:05:01.665Z,65.77
2019-05-14T04:06:01.661Z,65.66
2019-05-14T04:07:01.678Z,65.87
2019-05-14T04:08:01.640Z,65.66
2019-05-14T04:09:01.632Z,65.66
2019-05-14T04:10:01.621Z,65.87
2019-05-14T04:11:01.607Z,65.66
2019-05-14T04:12:01.674Z,65.77
2019-05-14T04:13:01.601Z,65.87
2019-05-14T04:14:01.578Z,65.97
2019-05-14T04:15:01.592Z,65.97
2019-05-14T04:16:01.573Z,65.56
2019-05-14T04:17:09.315Z,65.45
2019-05-14T04:18:02.561Z,65.35
2019-05-14T04:19:01.523Z,65.77
2019-05-14T04:20:01.549Z,65.87
2019-05-14T04:21:01.511Z,66.08
2019-05-14T04:22:01.484Z,65.77
2019-05-14T04:23:01.594Z,65.77
2019-05-14T04:24:01.458Z,65.97
2019-05-14T04:25:01.463Z,66.08
2019-05-14T04:26:01.435Z,65.87
2019-05-14T04:27:07.491Z,65.35
2019-05-14T04:28:02.428Z,65.77
2019-05-14T04:29:01.406Z,65.77
2019-05-14T04:30:01.458Z,65.77
2019-05-14T04:31:01.410Z,65.87
2019-05-14T04:32:01.384Z,65.77
2019-05-14T04:33:01.394Z,65.77
2019-05-14T04:34:01.380Z,65.35
2019-05-14T04:35:01.366Z,65.56
2019-05-14T04:36:01.339Z,64.80
2019-05-14T04:37:01.316Z,64.73
2019-05-14T04:38:01.328Z,64.59
2019-05-14T04:39:01.319Z,64.70
2019-05-14T04:40:01.298Z,64.80
2019-05-14T04:41:01.274Z,64.07
2019-05-14T04:42:01.293Z,64.39
2019-05-14T04:43:01.271Z,63.76
2019-05-14T04:44:01.249Z,63.46
2019-05-14T04:45:05.617Z,63.35
2019-05-14T04:46:01.234Z,63.66
2019-05-14T04:47:20.248Z,63.97
2019-05-14T04:48:21.074Z,63.87
2019-05-14T04:49:02.188Z,63.95
2019-05-14T04:50:01.188Z,63.22
2019-05-14T04:51:01.167Z,63.22
2019-05-14T04:52:01.160Z,63.43
2019-05-14T04:53:01.186Z,63.53
2019-05-14T04:54:01.159Z,63.22
2019-05-14T04:55:01.119Z,63.12
2019-05-14T04:56:01.108Z,63.43
2019-05-14T04:57:01.104Z,62.49
2019-05-14T04:58:01.103Z,63.22
2019-05-14T04:59:01.084Z,62.98
2019-05-14T05:00:01.060Z,62.57
2019-05-14T05:01:01.158Z,62.46
2019-05-14T05:02:01.045Z,62.37
2019-05-14T05:03:01.064Z,62.46
2019-05-14T05:04:01.025Z,62.46
2019-05-14T05:05:01.024Z,62.37
2019-05-14T05:06:01.003Z,62.16
2019-05-14T05:07:01.007Z,61.95
2019-05-14T05:08:00.993Z,62.37
2019-05-14T05:09:00.963Z,62.26
2019-05-14T05:10:00.954Z,62.16
2019-05-14T05:11:00.943Z,61.92
2019-05-14T05:12:00.924Z,61.61
2019-05-14T05:13:00.933Z,61.71
2019-05-14T05:14:00.927Z,61.10
2019-05-14T05:15:00.902Z,60.78
2019-05-14T05:16:00.883Z,60.89
2019-05-14T05:17:00.886Z,61.10
2019-05-14T05:18:00.886Z,60.99
2019-05-14T05:19:00.874Z,60.78
2019-05-14T05:20:00.885Z,61.30
2019-05-14T05:21:00.832Z,60.68
2019-05-14T05:22:00.823Z,60.78
2019-05-14T05:23:00.851Z,60.89
2019-05-14T05:24:00.801Z,60.68
2019-05-14T05:25:00.805Z,60.99
2019-05-14T05:26:00.778Z,60.78
2019-05-14T05:27:00.764Z,60.03
2019-05-14T05:28:00.791Z,59.93
2019-05-14T05:29:06.529Z,59.93
2019-05-14T05:30:01.772Z,59.93
2019-05-14T05:31:00.721Z,59.72
2019-05-14T05:32:00.718Z,60.14
2019-05-14T05:33:00.710Z,59.62
2019-05-14T05:34:00.689Z,59.18
2019-05-14T05:35:00.681Z,59.08
2019-05-14T05:36:00.719Z,59.49
2019-05-14T05:37:00.650Z,59.18
2019-05-14T05:38:01.653Z,59.18
2019-05-14T05:39:00.649Z,58.45
2019-05-14T05:40:00.639Z,58.33
2019-05-14T05:41:00.646Z,58.12
2019-05-14T05:42:00.610Z,58.22
2019-05-14T05:43:00.614Z,58.43
2019-05-14T05:44:00.580Z,57.91
2019-05-14T05:45:00.589Z,57.89
2019-05-14T05:46:00.572Z,57.17
2019-05-14T05:47:00.583Z,57.57
2019-05-14T05:48:01.714Z,57.06
2019-05-14T05:49:00.527Z,56.85
2019-05-14T05:50:00.528Z,56.96
2019-05-14T05:51:00.517Z,56.83
2019-05-14T05:52:00.508Z,56.93
2019-05-14T05:53:00.619Z,56.62
2019-05-14T05:54:00.468Z,56.08
2019-05-14T05:55:00.469Z,56.70
2019-05-14T05:56:00.458Z,56.18
2019-05-14T05:57:00.447Z,55.87
2019-05-14T05:58:00.427Z,55.74
2019-05-14T05:59:00.734Z,54.92
2019-05-14T06:00:00.406Z,55.02
2019-05-14T06:01:00.437Z,54.92
2019-05-14T06:02:00.387Z,54.92
2019-05-14T06:03:00.375Z,54.38
2019-05-14T06:04:00.367Z,54.38
2019-05-14T06:05:00.357Z,54.58
2019-05-14T06:06:00.365Z,53.74
2019-05-14T06:07:02.617Z,53.02
2019-05-14T06:08:00.335Z,53.33
2019-05-14T06:09:00.338Z,52.61
2019-05-14T06:10:00.316Z,52.50
2019-05-14T06:11:00.286Z,52.89
2019-05-14T06:12:00.284Z,53.30
2019-05-14T06:13:00.269Z,53.09
2019-05-14T06:14:00.253Z,52.58
2019-05-14T06:15:00.259Z,52.27
2019-05-14T06:16:00.233Z,53.22
2019-05-14T06:17:00.215Z,52.58
2019-05-14T06:18:14.064Z,52.81
2019-05-14T06:19:01.205Z,53.81
2019-05-14T06:20:00.195Z,52.58
2019-05-14T06:21:00.175Z,51.65
2019-05-14T06:22:00.163Z,51.45
2019-05-14T06:23:00.153Z,51.24
2019-05-14T06:24:02.885Z,51.86
2019-05-14T06:25:00.158Z,51.73
2019-05-14T06:26:00.297Z,51.32
2019-05-14T06:27:00.104Z,51.12
2019-05-14T06:28:00.095Z,51.53
2019-05-14T06:29:00.091Z,51.22
2019-05-14T06:30:00.074Z,51.09
2019-05-14T06:31:00.105Z,50.99
2019-05-14T06:32:00.074Z,50.68
2019-05-14T06:33:00.044Z,50.16
2019-05-14T06:34:00.024Z,50.06
2019-05-14T06:35:00.036Z,50.48
2019-05-14T06:36:00.347Z,50.27
2019-05-14T06:37:00.024Z,50.16
2019-05-14T06:37:59.994Z,49.86
2019-05-14T06:39:00.009Z,50.37
2019-05-14T06:39:59.975Z,50.48
2019-05-14T06:40:59.983Z,50.99
2019-05-14T06:41:59.943Z,51.20
2019-05-14T06:42:59.943Z,51.09
2019-05-14T06:43:59.947Z,51.07
2019-05-14T06:44:59.909Z,50.35
2019-05-14T06:45:59.894Z,49.94
2019-05-14T06:46:59.895Z,50.04
2019-05-14T06:47:59.873Z,50.16
2019-05-14T06:48:59.882Z,50.99
2019-05-14T06:49:59.863Z,50.76
2019-05-14T06:50:59.853Z,50.16
2019-05-14T06:51:59.863Z,50.58
2019-05-14T06:52:59.822Z,50.58
2019-05-14T06:53:59.802Z,50.89
2019-05-14T06:54:59.822Z,51.30
2019-05-14T06:55:59.792Z,50.86
2019-05-14T06:56:59.771Z,50.86
2019-05-14T06:57:59.781Z,51.25
2019-05-14T06:58:59.762Z,50.22
2019-05-14T06:59:59.783Z,50.30
2019-05-14T07:00:59.743Z,50.20
2019-05-14T07:01:59.723Z,49.99
2019-05-14T07:02:59.712Z,50.71
2019-05-14T07:03:59.702Z,50.92
2019-05-14T07:04:59.720Z,48.66
2019-05-14T07:05:59.707Z,48.76
2019-05-14T07:06:59.724Z,48.84
2019-05-14T07:07:59.874Z,48.02
2019-05-14T07:08:59.641Z,47.49
2019-05-14T07:09:59.633Z,46.87
2019-05-14T07:10:59.639Z,46.87
2019-05-14T07:11:59.639Z,46.87
2019-05-14T07:12:59.619Z,46.87
2019-05-14T07:13:59.591Z,46.85
2019-05-14T07:14:59.590Z,46.13
2019-05-14T07:15:59.561Z,45.62
2019-05-14T07:16:59.551Z,46.13
2019-05-14T07:17:59.562Z,46.01
2019-05-14T07:18:59.551Z,46.72
2019-05-14T07:19:59.548Z,46.93
2019-05-14T07:20:59.515Z,46.93
2019-05-14T07:21:59.509Z,46.01
2019-05-14T07:22:59.510Z,44.88
2019-05-14T07:23:59.521Z,45.90
2019-05-14T07:24:59.495Z,45.90
2019-05-14T07:25:59.450Z,45.29
2019-05-14T07:26:59.448Z,45.29
2019-05-14T07:27:59.450Z,46.11
2019-05-14T07:28:59.432Z,45.39
2019-05-14T07:29:59.410Z,45.84
2019-05-14T07:30:59.587Z,46.46
2019-05-14T07:31:59.390Z,46.85
2019-05-14T07:32:59.423Z,46.54
2019-05-14T07:33:59.380Z,45.51
2019-05-14T07:34:59.705Z,45.90
2019-05-14T07:35:59.591Z,46.21
2019-05-14T07:36:59.329Z,46.34
2019-05-14T07:37:59.339Z,47.03
2019-05-14T07:39:00.272Z,46.01
2019-05-14T07:39:59.299Z,45.09
2019-05-14T07:40:59.299Z,45.29
2019-05-14T07:41:59.412Z,44.86
2019-05-14T07:42:59.288Z,43.63
2019-05-14T07:43:59.280Z,44.35
2019-05-14T07:44:59.260Z,44.73
2019-05-14T07:45:59.238Z,43.82
2019-05-14T07:46:59.236Z,43.79
2019-05-14T07:47:59.219Z,43.49
2019-05-14T07:49:07.430Z,43.28
2019-05-14T07:50:00.229Z,42.97
2019-05-14T07:51:00.009Z,43.90
2019-05-14T07:51:59.191Z,43.59
2019-05-14T07:52:59.216Z,43.69
2019-05-14T07:53:59.148Z,43.69
2019-05-14T07:54:59.166Z,44.20
2019-05-14T07:55:59.323Z,43.08
2019-05-14T07:56:59.220Z,42.65
2019-05-14T07:58:00.579Z,42.44
2019-05-14T07:59:01.987Z,43.16
2019-05-14T07:59:59.099Z,43.69
2019-05-14T08:00:59.093Z,42.57
2019-05-14T08:01:59.076Z,42.97
2019-05-14T08:02:59.080Z,43.18
2019-05-14T08:04:00.175Z,43.40
2019-05-14T08:04:59.077Z,44.14
2019-05-14T08:05:59.052Z,43.84
2019-05-14T08:06:59.009Z,43.73
2019-05-14T08:07:58.996Z,42.58
2019-05-14T08:08:59.290Z,42.99
2019-05-14T08:09:58.987Z,42.57
2019-05-14T08:10:59.343Z,42.16
2019-05-14T08:11:58.977Z,41.75
2019-05-14T08:12:58.995Z,42.18
2019-05-14T08:13:58.937Z,42.69
2019-05-14T08:15:14.363Z,43.10
2019-05-14T08:15:59.928Z,43.12
2019-05-14T08:16:59.554Z,42.81
2019-05-14T08:17:58.887Z,43.22
2019-05-14T08:19:00.185Z,42.50
2019-05-14T08:19:58.857Z,42.99
2019-05-14T08:20:59.414Z,43.28
2019-05-14T08:21:59.164Z,42.57
2019-05-14T08:22:58.829Z,42.44
2019-05-14T08:23:59.358Z,40.81
2019-05-14T08:24:58.810Z,40.38
2019-05-14T08:25:58.918Z,40.36
2019-05-14T08:26:58.778Z,39.03
2019-05-14T08:27:58.801Z,39.22
2019-05-14T08:28:58.771Z,39.00
2019-05-14T08:29:59.009Z,38.16
2019-05-14T08:30:58.767Z,37.46
2019-05-14T08:31:58.738Z,38.28
2019-05-14T08:32:58.727Z,38.40
2019-05-14T08:33:59.123Z,38.71
2019-05-14T08:34:58.697Z,38.91
2019-05-14T08:35:59.567Z,39.22
2019-05-14T08:36:58.920Z,38.50
2019-05-14T08:38:08.229Z,38.91
2019-05-14T08:38:59.677Z,39.42
2019-05-14T08:39:58.857Z,39.22
2019-05-14T08:40:59.519Z,39.83
2019-05-14T08:42:03.084Z,40.14
2019-05-14T08:42:59.606Z,40.56
2019-05-14T08:43:59.455Z,39.75
2019-05-14T08:44:59.392Z,40.56
2019-05-14T08:45:58.876Z,40.99
2019-05-14T08:46:59.191Z,41.30
2019-05-14T08:47:58.747Z,41.22
2019-05-14T08:48:58.809Z,41.54
2019-05-14T08:49:59.911Z,41.46
2019-05-14T08:50:58.815Z,41.17
2019-05-14T08:51:59.490Z,42.22
2019-05-14T08:52:58.505Z,42.63
2019-05-14T08:53:59.243Z,42.81
2019-05-14T08:55:08.223Z,43.12
2019-05-14T08:55:59.465Z,43.73
2019-05-14T08:56:58.580Z,44.65
2019-05-14T08:57:59.232Z,45.57
2019-05-14T08:58:59.065Z,46.60
2019-05-14T08:59:59.363Z,47.11
2019-05-14T09:00:58.917Z,47.42
2019-05-14T09:02:05.920Z,47.83
2019-05-14T09:02:59.397Z,47.96
2019-05-14T09:03:59.606Z,48.16
2019-05-14T09:05:03.783Z,48.88
2019-05-14T09:06:00.688Z,49.29
2019-05-14T09:06:58.479Z,49.49
2019-05-14T09:07:58.361Z,49.90
2019-05-14T09:08:59.530Z,50.01
2019-05-14T09:10:00.070Z,50.21
2019-05-14T09:10:59.100Z,50.54
2019-05-14T09:11:59.912Z,50.44
2019-05-14T09:12:58.430Z,49.93
2019-05-14T09:13:59.453Z,49.93
2019-05-14T09:14:58.871Z,50.74
2019-05-14T09:15:58.493Z,49.69
2019-05-14T09:16:59.881Z,49.37
2019-05-14T09:17:59.093Z,47.83
2019-05-14T09:18:58.273Z,46.83
2019-05-14T09:20:06.208Z,47.03
2019-05-14T09:20:59.185Z,46.54
2019-05-14T09:21:58.847Z,46.75
2019-05-14T09:22:59.442Z,47.13
2019-05-14T09:23:58.736Z,46.03
2019-05-14T09:25:00.055Z,46.15
2019-05-14T09:25:58.851Z,46.46
2019-05-14T09:26:59.237Z,45.54
2019-05-14T09:27:58.719Z,46.36
2019-05-14T09:28:58.660Z,47.08
2019-05-14T09:29:58.972Z,47.79
2019-05-14T09:30:59.666Z,47.77
2019-05-14T09:31:58.915Z,46.93
2019-05-14T09:32:59.367Z,45.80
2019-05-14T09:33:58.521Z,45.50
2019-05-14T09:34:58.939Z,44.88
2019-05-14T09:36:13.575Z,44.45
2019-05-14T09:36:59.517Z,44.86
2019-05-14T09:37:59.309Z,45.06
2019-05-14T09:38:58.442Z,43.84
2019-05-14T09:39:58.475Z,42.71
2019-05-14T09:41:08.230Z,42.71
2019-05-14T09:41:58.997Z,42.91
2019-05-14T09:42:58.719Z,43.32
2019-05-14T09:43:58.764Z,43.40
2019-05-14T09:44:59.585Z,42.40
2019-05-14T09:45:58.739Z,42.61
2019-05-14T09:46:59.417Z,42.30
2019-05-14T09:47:58.575Z,42.93
2019-05-14T09:48:58.922Z,43.53
2019-05-14T09:49:59.654Z,43.94
2019-05-14T09:50:58.884Z,43.91
2019-05-14T09:51:58.363Z,44.32
2019-05-14T09:52:59.347Z,44.10
2019-05-14T09:53:58.987Z,44.10
2019-05-14T09:54:58.561Z,42.67
2019-05-14T09:55:58.335Z,42.69
2019-05-14T09:56:59.120Z,43.61
2019-05-14T09:57:58.695Z,44.31
2019-05-14T09:58:58.682Z,43.49
2019-05-14T09:59:58.601Z,42.24
2019-05-14T10:00:59.121Z,42.65
2019-05-14T10:01:58.545Z,43.37
2019-05-14T10:02:59.698Z,42.55
2019-05-14T10:03:59.316Z,42.55
2019-05-14T10:04:59.826Z,42.96
2019-05-14T10:05:58.973Z,42.94
2019-05-14T10:06:59.286Z,43.76
2019-05-14T10:07:59.397Z,43.73
2019-05-14T10:08:59.086Z,41.91
2019-05-14T10:09:57.693Z,42.44
2019-05-14T10:11:00.398Z,42.65
2019-05-14T10:11:58.088Z,42.55
2019-05-14T10:13:01.160Z,43.37
2019-05-14T10:13:59.611Z,43.57
2019-05-14T10:14:59.195Z,42.63
2019-05-14T10:15:58.910Z,42.94
2019-05-14T10:16:58.299Z,42.53
2019-05-14T10:18:00.366Z,42.71
2019-05-14T10:18:57.545Z,42.41
2019-05-14T10:19:59.523Z,41.69
2019-05-14T10:20:59.040Z,40.56
2019-05-14T10:21:58.792Z,40.19
2019-05-14T10:22:58.555Z,41.11
2019-05-14T10:23:58.458Z,41.22
2019-05-14T10:24:58.243Z,40.60
2019-05-14T10:25:58.093Z,41.11
2019-05-14T10:26:58.567Z,42.34
2019-05-14T10:27:59.117Z,42.50
2019-05-14T10:28:59.078Z,41.67
2019-05-14T10:29:58.889Z,41.24
2019-05-14T10:30:59.928Z,39.49
2019-05-14T10:31:59.202Z,38.57
2019-05-14T10:33:07.288Z,38.87
2019-05-14T10:33:58.971Z,38.87
2019-05-14T10:34:58.998Z,38.79
2019-05-14T10:35:58.796Z,40.12
2019-05-14T10:36:59.067Z,40.55
2019-05-14T10:37:59.867Z,40.75
2019-05-14T10:38:58.819Z,40.85
2019-05-14T10:39:58.625Z,40.85
2019-05-14T10:40:58.419Z,41.16
2019-05-14T10:41:57.296Z,40.55
2019-05-14T10:42:57.285Z,40.65
2019-05-14T10:43:58.885Z,40.24
2019-05-14T10:44:58.630Z,40.46
2019-05-14T10:45:58.026Z,40.89
2019-05-14T10:46:58.317Z,41.71
2019-05-14T10:47:58.574Z,42.24
2019-05-14T10:49:00.267Z,42.63
2019-05-14T10:49:58.439Z,42.14
2019-05-14T10:51:03.332Z,42.24
2019-05-14T10:51:58.566Z,42.43
2019-05-14T10:52:59.574Z,42.02
2019-05-14T10:53:59.452Z,43.85
2019-05-14T10:54:59.124Z,41.49
2019-05-14T10:55:58.311Z,41.11
2019-05-14T10:56:59.157Z,41.83
2019-05-14T10:57:58.529Z,42.24
2019-05-14T10:58:58.378Z,42.44
2019-05-14T10:59:59.154Z,43.76
2019-05-14T11:00:58.900Z,44.06
2019-05-14T11:01:57.094Z,44.18
2019-05-14T11:02:57.062Z,44.70
2019-05-14T11:03:57.065Z,44.41
2019-05-14T11:04:58.707Z,43.79
2019-05-14T11:05:58.817Z,44.73
2019-05-14T11:06:57.047Z,44.43
2019-05-14T11:07:58.718Z,44.86
2019-05-14T11:08:57.004Z,45.27
2019-05-14T11:09:56.988Z,46.11
2019-05-14T11:11:03.089Z,47.46
2019-05-14T11:11:58.422Z,49.54
2019-05-14T11:12:59.300Z,51.64
2019-05-14T11:13:56.941Z,54.00
2019-05-14T11:14:56.957Z,54.64
2019-05-14T11:15:59.487Z,56.38
2019-05-14T11:16:59.126Z,56.18
2019-05-14T11:17:56.912Z,55.98
2019-05-14T11:18:57.681Z,55.36
2019-05-14T11:19:58.709Z,54.85
2019-05-14T11:21:18.179Z,51.66
2019-05-14T11:21:58.021Z,50.53
2019-05-14T11:22:58.446Z,49.40
2019-05-14T11:23:58.567Z,47.78
2019-05-14T11:24:59.128Z,47.45
2019-05-14T11:25:58.168Z,48.07
2019-05-14T11:26:59.032Z,47.96
2019-05-14T11:27:58.673Z,46.32
2019-05-14T11:28:58.583Z,47.02
2019-05-14T11:29:58.645Z,47.22
2019-05-14T11:30:56.773Z,46.38
2019-05-14T11:31:56.751Z,46.07
2019-05-14T11:32:58.387Z,46.46
2019-05-14T11:33:58.901Z,45.33
2019-05-14T11:34:59.134Z,45.42
2019-05-14T11:35:58.497Z,45.62
2019-05-14T11:36:58.947Z,47.46
2019-05-14T11:37:58.793Z,48.31
2019-05-14T11:39:00.647Z,49.02
2019-05-14T11:39:58.109Z,49.54
2019-05-14T11:40:58.798Z,48.51
2019-05-14T11:41:58.866Z,47.30
2019-05-14T11:42:58.985Z,47.00
2019-05-14T11:43:59.228Z,45.56
2019-05-14T11:44:58.206Z,47.09
2019-05-14T11:45:58.982Z,46.58
2019-05-14T11:46:59.271Z,46.97
2019-05-14T11:47:58.444Z,46.67
2019-05-14T11:48:59.228Z,46.56
2019-05-14T11:49:59.169Z,46.54
2019-05-14T11:50:59.140Z,46.62
2019-05-14T11:52:07.203Z,47.01
2019-05-14T11:52:58.501Z,45.98
2019-05-14T11:53:58.754Z,45.98
2019-05-14T11:54:58.523Z,45.89
2019-05-14T11:55:58.555Z,45.68
2019-05-14T11:56:58.748Z,45.57
2019-05-14T11:58:03.542Z,46.19
2019-05-14T11:58:58.954Z,45.89
2019-05-14T11:59:58.161Z,45.04
2019-05-14T12:00:58.468Z,44.84
2019-05-14T12:01:59.135Z,45.04
2019-05-14T12:02:58.593Z,44.84
2019-05-14T12:03:59.569Z,45.02
2019-05-14T12:04:56.399Z,45.02
2019-05-14T12:05:58.641Z,44.92
2019-05-14T12:06:58.899Z,45.56
2019-05-14T12:07:56.355Z,45.56
2019-05-14T12:08:58.234Z,44.92
2019-05-14T12:09:56.337Z,45.02
2019-05-14T12:10:59.020Z,45.51
2019-05-14T12:11:58.524Z,44.78
2019-05-14T12:12:58.389Z,43.14
2019-05-14T12:13:59.640Z,43.22
2019-05-14T12:14:58.220Z,42.61
2019-05-14T12:15:58.952Z,42.81
2019-05-14T12:16:56.274Z,41.61
2019-05-14T12:17:59.277Z,42.12
2019-05-14T12:18:58.865Z,42.63
2019-05-14T12:19:56.251Z,43.24
2019-05-14T12:20:59.180Z,41.71
2019-05-14T12:22:10.375Z,42.85
